Time;durP1;ratioP1;P1;durP2;ratioP2;P2;SDS_P1;SDS_P2;PMS_P1;PMS_P2;Temp;Humidity;BMP_temperature;BMP_pressure;BME280_temperature;BME280_humidity;BME280_pressure;Samples;Min_cycle;Max_cycle;Signal;HPM_P1;HPM_P2
2022/01/19 00:00:48;;;;;;;4.07;3.78;;;;;;;-7.66;81.08;100049.81;4991886;28;20050;-69
2022/01/19 00:03:14;;;;;;;5.95;4.53;;;;;;;-7.65;81.11;100039.69;4991274;28;20109;-71
2022/01/19 00:05:40;;;;;;;4.50;2.67;;;;;;;-7.60;81.25;100022.94;4991819;28;20046;-71
2022/01/19 00:08:06;;;;;;;3.75;3.42;;;;;;;-7.51;81.03;100043.38;4957964;28;20552;-71
2022/01/19 00:10:33;;;;;;;10.23;3.38;;;;;;;-7.55;80.54;100036.53;4991884;28;20046;-70
2022/01/19 00:12:59;;;;;;;3.08;2.88;;;;;;;-7.53;80.42;100045.03;4957979;28;20050;-70
2022/01/19 00:15:26;;;;;;;3.88;3.45;;;;;;;-7.52;81.00;100031.53;4991738;28;20053;-70
2022/01/19 00:17:58;;;;;;;2.75;2.63;;;;;;;-7.50;80.88;100045.09;4989877;28;20046;-71
2022/01/19 00:20:26;;;;;;;3.85;2.90;;;;;;;-7.47;80.77;100032.47;4991300;28;20050;-71
2022/01/19 00:22:53;;;;;;;5.78;3.33;;;;;;;-7.45;80.66;100028.28;4990041;28;20046;-71
2022/01/19 00:25:19;;;;;;;3.53;2.97;;;;;;;-7.41;81.10;100034.28;4990412;28;20134;-71
2022/01/19 00:27:45;;;;;;;4.10;3.42;;;;;;;-7.44;80.62;100032.53;4989459;28;20530;-71
2022/01/19 00:30:11;;;;;;;9.13;4.50;;;;;;;-7.42;81.03;100041.03;4990779;28;20050;-71
2022/01/19 00:32:37;;;;;;;5.35;3.67;;;;;;;-7.41;80.72;100047.81;4989078;28;20050;-71
2022/01/19 00:35:05;;;;;;;5.18;3.53;;;;;;;-7.39;80.30;100043.59;4989970;28;20061;-71
2022/01/19 00:37:31;;;;;;;9.32;3.10;;;;;;;-7.36;80.74;100047.88;4991149;28;20076;-71
2022/01/19 00:39:57;;;;;;;3.50;3.30;;;;;;;-7.35;80.36;100026.78;4990819;28;20061;-71
2022/01/19 00:42:24;;;;;;;4.75;4.25;;;;;;;-7.35;80.58;100038.59;4989832;28;20050;-71
2022/01/19 00:44:50;;;;;;;3.83;3.53;;;;;;;-7.38;80.52;100045.34;4989825;28;20042;-69
2022/01/19 00:47:16;;;;;;;4.43;4.00;;;;;;;-7.38;80.18;100025.06;5005946;28;20148;-70
2022/01/19 00:49:43;;;;;;;3.08;2.88;;;;;;;-7.36;80.44;100031.84;4990954;28;20043;-72
2022/01/19 00:52:10;;;;;;;5.68;3.67;;;;;;;-7.36;80.64;100041.97;4990678;28;20050;-69
2022/01/19 00:54:36;;;;;;;4.15;3.63;;;;;;;-7.41;80.25;100031.75;4989418;28;20437;-70
2022/01/19 00:57:03;;;;;;;3.53;3.22;;;;;;;-7.47;80.51;100027.41;4989526;28;20073;-70
2022/01/19 00:59:31;;;;;;;3.53;3.28;;;;;;;-7.45;80.41;100028.28;4989375;28;20437;-70
2022/01/19 01:01:57;;;;;;;4.15;3.85;;;;;;;-7.46;79.86;100013.91;4990598;28;20058;-70
2022/01/19 01:04:23;;;;;;;3.47;3.28;;;;;;;-7.42;79.56;100015.66;4990484;28;20046;-71
2022/01/19 01:06:49;;;;;;;3.53;3.22;;;;;;;-7.42;80.13;100020.75;4990768;28;20458;-71
2022/01/19 01:09:18;;;;;;;4.15;3.85;;;;;;;-7.42;79.93;100028.34;4990344;28;20043;-69
2022/01/19 01:11:58;;;;;;;2.22;2.13;;;;;;;-7.43;79.65;100019.03;4992954;28;20197;-70
2022/01/19 01:19:58;;;;;;;2.95;2.85;;;;;;;-7.54;79.98;100020.50;4969222;28;20046;-71
2022/01/19 01:22:25;;;;;;;3.47;3.15;;;;;;;-7.59;80.07;100009.41;4973185;28;20042;-70
2022/01/19 01:24:51;;;;;;;3.80;2.70;;;;;;;-7.66;80.67;100017.75;4990273;28;20054;-70
2022/01/19 01:27:19;;;;;;;7.75;2.83;;;;;;;-7.67;80.95;100021.09;4972985;28;20518;-70
2022/01/19 01:29:45;;;;;;;5.72;3.13;;;;;;;-7.70;80.89;100022.69;4989002;28;20051;-69
2022/01/19 01:32:14;;;;;;;4.07;3.28;;;;;;;-7.75;81.20;100019.22;4988758;28;20054;-70
2022/01/19 01:34:40;;;;;;;4.30;3.83;;;;;;;-7.73;81.01;100010.84;4988909;28;20054;-71
2022/01/19 01:37:06;;;;;;;4.85;3.20;;;;;;;-7.78;81.28;100021.69;4989058;28;20104;-70
2022/01/19 01:39:32;;;;;;;3.50;2.83;;;;;;;-7.74;81.15;100021.78;4991343;28;20050;-70
2022/01/19 01:41:58;;;;;;;3.30;3.00;;;;;;;-7.85;81.18;100019.88;4993389;28;20506;-70
2022/01/19 01:44:34;;;;;;;3.50;3.20;;;;;;;-7.83;81.54;100024.13;5009543;28;20632;-70
2022/01/19 01:47:01;;;;;;;2.97;2.67;;;;;;;-7.90;81.55;100027.34;4976862;28;20047;-70
2022/01/19 01:49:42;;;;;;;4.22;2.85;;;;;;;-7.95;82.02;100019.66;4993146;28;20046;-70
2022/01/19 01:54:53;;;;;;;3.30;3.10;;;;;;;-8.01;81.92;100023.72;4995516;28;20461;-71
2022/01/19 01:57:19;;;;;;;3.47;3.17;;;;;;;-7.98;82.02;100028.84;4960598;28;20096;-71
2022/01/19 01:59:47;;;;;;;3.03;2.83;;;;;;;-7.98;81.99;100027.19;4993125;28;20140;-71
2022/01/19 02:02:21;;;;;;;7.18;3.92;;;;;;;-8.02;82.04;100022.88;5010743;28;20050;-71
2022/01/19 02:04:48;;;;;;;7.18;5.88;;;;;;;-8.00;82.06;100022.91;4993054;28;20105;-70
2022/01/19 02:09:58;;;;;;;3.97;3.72;;;;;;;-8.04;82.23;100026.19;5009653;28;20056;-70
2022/01/19 02:23:26;;;;;;;5.78;4.53;;;;;;;-7.96;82.59;100024.69;4995971;28;20145;-69
2022/01/19 02:25:55;;;;;;;4.38;4.07;;;;;;;-7.94;82.62;100023.03;4994707;28;20106;-69
2022/01/19 02:41:47;;;;;;;4.30;4.00;;;;;;;-7.91;82.15;100043.34;5011594;28;20127;-70
2022/01/19 02:44:27;;;;;;;4.60;4.10;;;;;;;-7.95;82.64;100050.03;5011145;28;20345;-70
2022/01/19 02:49:38;;;;;;;6.65;4.43;;;;;;;-7.93;82.83;100058.53;5012500;28;20043;-70
2022/01/19 02:52:05;;;;;;;4.13;3.83;;;;;;;-7.90;82.98;100062.81;5010760;28;20053;-72
2022/01/19 02:54:31;;;;;;;4.35;3.75;;;;;;;-7.82;83.18;100058.78;5000862;28;20052;-72
2022/01/19 02:57:00;;;;;;;4.00;3.58;;;;;;;-7.74;82.58;100076.66;5012635;28;20049;-72
2022/01/19 03:06:31;;;;;;;4.28;3.50;;;;;;;-7.75;82.46;100062.31;5012003;28;20135;-72
2022/01/19 03:10:38;;;;;;;3.10;2.90;;;;;;;-7.77;82.76;100044.53;5005345;28;20103;-70
2022/01/19 03:13:04;;;;;;;2.35;2.25;;;;;;;-7.62;82.29;100069.31;4987786;28;20054;-71
2022/01/19 03:15:30;;;;;;;2.30;2.10;;;;;;;-7.60;81.91;100060.94;5019288;28;20133;-70
2022/01/19 03:17:59;;;;;;;3.95;3.58;;;;;;;-7.57;82.68;100055.94;5003101;28;20061;-70
2022/01/19 03:20:26;;;;;;;6.60;2.35;;;;;;;-7.55;82.41;100051.72;5000697;28;20148;-71
2022/01/19 03:23:02;;;;;;;2.88;2.67;;;;;;;-7.53;82.57;100050.09;5004322;28;20052;-71
2022/01/19 03:25:29;;;;;;;3.05;2.83;;;;;;;-7.68;82.64;100024.44;5019762;28;20100;-71
2022/01/19 03:27:55;;;;;;;2.53;2.42;;;;;;;-7.52;82.21;100053.47;5022300;28;20038;-70
2022/01/19 03:30:21;;;;;;;2.47;1.92;;;;;;;-7.50;82.62;100060.31;4998914;28;20057;-70
2022/01/19 03:32:48;;;;;;;2.83;2.65;;;;;;;-7.53;82.65;100055.19;5001738;28;20513;-70
2022/01/19 03:35:16;;;;;;;4.28;3.65;;;;;;;-7.54;82.44;100052.59;4993180;28;20053;-71
2022/01/19 03:37:43;;;;;;;2.67;2.47;;;;;;;-7.56;82.47;100042.41;4973752;28;20144;-71
2022/01/19 03:40:10;;;;;;;4.05;3.15;;;;;;;-7.54;82.83;100047.53;4987778;28;20049;-71
2022/01/19 03:42:37;;;;;;;7.20;4.50;;;;;;;-7.53;82.97;100047.56;4977840;28;20108;-70
2022/01/19 03:45:06;;;;;;;3.58;3.28;;;;;;;-7.57;83.13;100047.47;5011466;28;20053;-70
2022/01/19 03:47:39;;;;;;;7.15;3.35;;;;;;;-7.70;82.56;100053.97;5001088;28;20054;-70
2022/01/19 03:50:05;;;;;;;4.28;3.97;;;;;;;-7.78;83.30;100044.47;4993577;28;20054;-71
2022/01/19 03:52:32;;;;;;;4.20;2.45;;;;;;;-7.75;83.96;100057.22;5010322;28;20057;-71
2022/01/19 03:54:59;;;;;;;2.75;2.47;;;;;;;-7.77;83.49;100054.66;5011332;28;20080;-70
2022/01/19 03:57:25;;;;;;;2.03;1.92;;;;;;;-7.74;83.55;100061.44;4994839;28;20514;-71
2022/01/19 03:59:51;;;;;;;4.00;3.63;;;;;;;-7.73;83.86;100058.09;5011381;28;20576;-70
2022/01/19 04:02:18;;;;;;;2.55;2.45;;;;;;;-7.72;83.62;100055.59;5009016;28;20514;-70
2022/01/19 04:07:15;;;;;;;3.72;2.95;;;;;;;-7.77;83.43;100067.31;4977541;28;20677;-70
2022/01/19 04:09:44;;;;;;;2.25;2.15;;;;;;;-7.81;83.07;100057.94;4993636;28;20054;-70
2022/01/19 04:12:18;;;;;;;6.05;3.65;;;;;;;-7.80;83.76;100069.78;4993338;28;20048;-71
2022/01/19 04:14:45;;;;;;;2.17;2.08;;;;;;;-7.78;83.57;100077.41;4980411;28;20133;-70
2022/01/19 04:17:12;;;;;;;2.42;2.33;;;;;;;-7.81;83.05;100083.25;4977038;28;20050;-71
2022/01/19 04:19:48;;;;;;;3.42;2.03;;;;;;;-7.81;83.31;100078.19;5009511;28;20042;-70
2022/01/19 04:22:19;;;;;;;3.92;3.60;;;;;;;-7.85;83.25;100084.00;5009425;28;20080;-70
2022/01/19 04:24:46;;;;;;;2.65;2.45;;;;;;;-7.85;82.97;100091.59;4993312;28;20366;-71
2022/01/19 04:29:56;;;;;;;3.22;3.03;;;;;;;-7.95;83.15;100087.19;5009615;28;20402;-70
2022/01/19 04:32:31;;;;;;;2.40;2.30;;;;;;;-8.04;83.12;100079.34;4977396;28;20541;-70
2022/01/19 04:34:57;;;;;;;2.22;2.05;;;;;;;-8.05;83.41;100078.50;4993318;28;20058;-70
2022/01/19 04:37:36;;;;;;;4.22;3.00;;;;;;;-8.13;83.69;100074.09;5008780;28;20057;-70
2022/01/19 04:45:54;;;;;;;4.60;2.75;;;;;;;-8.30;83.69;100085.53;5008849;28;20052;-71
2022/01/19 05:05:10;;;;;;;2.90;2.70;;;;;;;-8.36;84.50;100087.91;5010455;28;20054;-70
2022/01/19 05:07:54;;;;;;;3.03;2.83;;;;;;;-8.37;84.41;100073.53;4996896;28;20069;-71
2022/01/19 05:15:51;;;;;;;2.63;2.42;;;;;;;-8.52;84.86;100076.56;4992657;28;20065;-70
2022/01/19 05:18:19;;;;;;;1.45;1.45;;;;;;;-8.54;84.71;100068.94;5008697;28;20050;-71
2022/01/19 05:20:46;;;;;;;3.25;3.00;;;;;;;-8.50;84.74;100072.41;5008877;28;20046;-70
2022/01/19 05:23:24;;;;;;;6.38;3.08;;;;;;;-8.46;84.83;100059.88;4994108;28;20057;-71
2022/01/19 05:25:50;;;;;;;2.70;2.60;;;;;;;-8.54;84.71;100056.28;5008812;28;20076;-70
2022/01/19 05:28:23;;;;;;;3.28;3.08;;;;;;;-8.71;84.90;100057.56;5009770;28;20053;-70
2022/01/19 05:30:50;;;;;;;3.90;2.75;;;;;;;-8.75;85.76;100048.19;4992036;28;20072;-70
2022/01/19 05:33:16;;;;;;;3.13;2.83;;;;;;;-8.73;85.58;100049.06;4992167;28;20131;-71
2022/01/19 05:35:43;;;;;;;5.95;3.97;;;;;;;-8.77;85.73;100046.44;4992487;28;20058;-70
2022/01/19 05:38:27;;;;;;;3.58;3.28;;;;;;;-8.80;86.36;100052.25;5009789;28;20046;-70
2022/01/19 05:41:11;;;;;;;6.45;4.35;;;;;;;-8.81;86.10;100047.16;5009775;28;20108;-71
2022/01/19 05:43:39;;;;;;;3.28;3.08;;;;;;;-8.79;86.00;100050.59;5009466;28;20540;-70
2022/01/19 05:46:05;;;;;;;5.45;4.03;;;;;;;-8.78;86.42;100050.63;5008685;28;20085;-70
2022/01/19 05:48:35;;;;;;;2.38;2.28;;;;;;;-8.75;86.58;100053.25;4992262;28;20061;-71
2022/01/19 05:51:01;;;;;;;3.97;3.65;;;;;;;-8.85;86.42;100055.50;4981877;28;20216;-70
2022/01/19 05:53:30;;;;;;;4.32;3.92;;;;;;;-8.73;87.19;100058.31;4978388;28;20200;-70
2022/01/19 05:55:56;;;;;;;2.47;2.30;;;;;;;-8.69;86.96;100055.91;5014578;28;20071;-70
2022/01/19 05:58:23;;;;;;;5.32;3.78;;;;;;;-8.70;86.26;100054.19;5014249;28;20133;-70
2022/01/19 06:00:53;;;;;;;1.95;1.85;;;;;;;-8.63;86.12;100051.00;5029605;28;20088;-71
2022/01/19 06:03:19;;;;;;;4.18;3.88;;;;;;;-8.33;85.90;100057.63;5003711;28;20041;-70
2022/01/19 06:06:17;;;;;;;6.00;4.25;;;;;;;-7.70;82.76;100045.50;4984242;28;20046;-69
2022/01/19 06:09:09;;;;;;;3.53;3.22;;;;;;;-7.25;80.66;100045.56;4984228;28;20050;-69
2022/01/19 06:11:35;;;;;;;2.60;2.40;;;;;;;-7.11;79.26;100045.00;4982763;28;20046;-69
2022/01/19 06:14:03;;;;;;;3.78;3.30;;;;;;;-6.97;78.17;100048.63;4994778;28;20437;-69
2022/01/19 06:16:29;;;;;;;4.43;4.03;;;;;;;-6.72;76.84;100038.91;4977163;28;20062;-69
2022/01/19 06:18:57;;;;;;;3.42;3.22;;;;;;;-6.70;77.09;100027.09;4995824;28;20035;-69
2022/01/19 06:21:26;;;;;;;6.97;3.55;;;;;;;-6.79;76.44;100035.41;4994125;28;20046;-70
2022/01/19 06:23:53;;;;;;;6.75;4.68;;;;;;;-6.25;74.46;100014.28;4998681;28;20038;-69
2022/01/19 06:26:21;;;;;;;3.75;3.22;;;;;;;-5.57;72.45;100031.28;4963366;28;20053;-70
2022/01/19 06:28:48;;;;;;;10.90;4.22;;;;;;;-5.38;71.32;100030.69;4982267;28;20113;-70
2022/01/19 06:31:14;;;;;;;10.52;4.68;;;;;;;-5.55;72.28;100032.16;4964595;28;20137;-70
2022/01/19 06:33:41;;;;;;;6.38;5.15;;;;;;;-5.66;73.44;100041.31;4966603;28;20108;-70
2022/01/19 06:36:08;;;;;;;2.42;2.30;;;;;;;-5.84;72.31;100036.00;4984706;28;20778;-70
2022/01/19 06:38:42;;;;;;;4.15;3.72;;;;;;;-5.74;71.72;100037.84;4997089;28;20060;-69
2022/01/19 06:41:18;;;;;;;6.22;3.67;;;;;;;-6.17;73.13;100035.56;4992111;28;20296;-70
2022/01/19 06:43:44;;;;;;;4.15;2.90;;;;;;;-5.86;72.41;100037.72;4997253;28;20121;-70
2022/01/19 06:46:11;;;;;;;4.75;3.95;;;;;;;-5.49;72.02;100033.91;4998526;28;20038;-69
2022/01/19 06:48:39;;;;;;;4.90;4.40;;;;;;;-5.70;72.41;100039.59;4997386;28;20576;-70
2022/01/19 06:51:08;;;;;;;5.10;4.13;;;;;;;-6.02;73.42;100046.78;4979748;28;20057;-70
2022/01/19 06:53:43;;;;;;;5.13;4.68;;;;;;;-5.34;70.75;100040.06;4982370;28;20058;-70
2022/01/19 06:56:19;;;;;;;3.78;3.45;;;;;;;-5.30;69.60;100031.59;4996582;28;20081;-69
2022/01/19 06:58:47;;;;;;;2.90;2.80;;;;;;;-5.04;69.35;100028.50;4984433;28;20047;-70
2022/01/19 07:01:19;;;;;;;4.88;4.35;;;;;;;-4.84;68.86;100025.31;4998778;28;20069;-71
2022/01/19 07:04:15;;;;;;;4.00;3.60;;;;;;;-4.40;67.12;100024.84;4990162;28;20552;-70
2022/01/19 07:06:43;;;;;;;3.45;3.15;;;;;;;-4.60;66.99;100027.22;5002264;28;20073;-71
2022/01/19 07:09:18;;;;;;;4.28;3.88;;;;;;;-5.16;69.43;100025.81;5001552;28;20046;-71
2022/01/19 07:11:52;;;;;;;10.77;5.30;;;;;;;-4.15;66.83;100023.31;4986458;28;20053;-70
2022/01/19 07:14:19;;;;;;;2.45;2.22;;;;;;;-4.40;66.04;100027.38;4982527;28;20180;-71
2022/01/19 07:16:48;;;;;;;2.92;2.70;;;;;;;-4.54;67.37;100031.50;4981745;28;20058;-72
2022/01/19 07:19:15;;;;;;;4.50;3.75;;;;;;;-4.52;66.94;100030.69;4981794;28;20042;-72
2022/01/19 07:21:43;;;;;;;5.70;4.47;;;;;;;-3.67;65.34;100015.97;4986184;28;20418;-71
2022/01/19 07:24:12;;;;;;;4.15;3.75;;;;;;;-3.99;65.07;100020.03;4964194;28;20047;-71
2022/01/19 07:26:38;;;;;;;6.88;4.78;;;;;;;-4.07;65.09;100014.03;5000501;28;20058;-71
2022/01/19 07:29:09;;;;;;;5.18;4.47;;;;;;;-3.52;63.03;100010.06;4996209;28;20042;-69
2022/01/19 07:31:35;;;;;;;7.38;4.22;;;;;;;-4.54;64.99;100009.44;4997126;28;20050;-70
2022/01/19 07:34:05;;;;;;;5.50;5.00;;;;;;;-2.85;60.48;100013.66;4983290;28;20050;-72
2022/01/19 07:36:33;;;;;;;4.10;3.20;;;;;;;-2.94;60.10;100011.06;4994582;28;20042;-70
2022/01/19 07:38:59;;;;;;;3.30;2.60;;;;;;;-2.92;59.75;100000.03;4997081;28;20054;-71
2022/01/19 07:41:25;;;;;;;8.27;5.97;;;;;;;-2.05;58.78;100007.66;4980653;28;20042;-70
2022/01/19 07:43:53;;;;;;;7.45;6.10;;;;;;;-1.37;56.33;100000.63;4991206;28;20054;-70
2022/01/19 07:46:41;;;;;;;6.25;5.65;;;;;;;-0.97;52.98;99995.28;4983544;28;20510;-69
2022/01/19 07:49:30;;;;;;;8.70;6.32;;;;;;;-0.82;53.14;99985.78;4971534;28;20105;-69
2022/01/19 07:52:16;;;;;;;8.73;5.95;;;;;;;0.14;50.40;99982.38;4995063;28;20065;-70
2022/01/19 07:54:56;;;;;;;8.05;6.35;;;;;;;0.36;49.39;99976.16;4982610;28;20509;-70
2022/01/19 07:57:55;;;;;;;10.07;8.00;;;;;;;-142.02;100.00;61695.09;4987333;28;20042;-70
2022/01/19 08:00:29;;;;;;;18.38;9.98;;;;;;;-142.02;100.00;61695.09;4970394;28;20058;-71
2022/01/19 08:03:14;;;;;;;12.95;7.00;;;;;;;-142.02;100.00;61695.09;4996272;28;20046;-71
2022/01/19 08:06:03;;;;;;;10.10;6.70;;;;;;;-142.02;100.00;61695.09;4987057;28;20054;-71
2022/01/19 08:08:32;;;;;;;8.02;5.90;;;;;;;-142.02;100.00;61695.09;4986117;28;20559;-70
2022/01/19 08:10:58;;;;;;;7.43;6.43;;;;;;;-142.02;100.00;61695.09;4979506;28;20058;-71
2022/01/19 08:13:24;;;;;;;7.38;5.30;;;;;;;-142.02;100.00;61695.09;4998185;28;20137;-71
2022/01/19 08:15:53;;;;;;;7.00;5.35;;;;;;;-142.02;100.00;61695.09;4996560;28;20052;-70
2022/01/19 08:18:19;;;;;;;6.45;5.30;;;;;;;-142.02;100.00;61695.09;4966431;28;20042;-70
2022/01/19 08:20:46;;;;;;;5.57;5.13;;;;;;;-142.02;100.00;61695.09;4997485;28;20078;-69
2022/01/19 08:23:14;;;;;;;5.40;4.85;;;;;;;-142.02;100.00;61695.09;4994850;28;20054;-69
2022/01/19 08:25:50;;;;;;;5.50;4.75;;;;;;;-142.02;100.00;61695.09;4981827;28;20081;-68
2022/01/19 08:28:16;;;;;;;5.28;4.88;;;;;;;-142.02;100.00;61695.09;4994980;28;20038;-71
2022/01/19 08:30:44;;;;;;;4.75;4.35;;;;;;;-142.02;100.00;61695.09;4996093;28;20034;-71
2022/01/19 08:33:14;;;;;;;6.25;5.30;;;;;;;-142.02;100.00;61695.09;4981559;28;20052;-72
2022/01/19 08:35:51;;;;;;;10.75;5.20;;;;;;;-142.02;100.00;61695.09;4978233;28;20046;-71
2022/01/19 08:38:36;;;;;;;5.45;4.95;;;;;;;-142.02;100.00;61695.09;4997002;28;20050;-71
2022/01/19 08:41:10;;;;;;;6.72;6.10;;;;;;;-142.02;100.00;61695.09;4981530;28;20042;-70
2022/01/19 08:43:37;;;;;;;5.72;5.20;;;;;;;-142.02;100.00;61695.09;4978260;28;20064;-70
2022/01/19 08:46:06;;;;;;;5.90;5.40;;;;;;;-142.02;100.00;61695.09;4997529;28;20050;-70
2022/01/19 08:49:11;;;;;;;6.13;5.53;;;;;;;-142.02;100.00;61695.09;4992401;28;20042;-70
2022/01/19 08:51:57;;;;;;;5.85;5.35;;;;;;;-142.02;100.00;61695.09;4984695;28;20054;-70
2022/01/19 08:54:28;;;;;;;8.80;5.78;;;;;;;-142.02;100.00;61695.09;4992201;28;20048;-70
2022/01/19 08:57:00;;;;;;;7.93;6.32;;;;;;;-142.02;100.00;61695.09;4997886;28;20184;-70
2022/01/19 08:59:26;;;;;;;7.57;6.53;;;;;;;-142.02;100.00;61695.09;4991831;28;20046;-70
2022/01/19 09:01:52;;;;;;;7.20;6.50;;;;;;;-142.02;100.00;61695.09;4991715;28;20213;-70
2022/01/19 09:04:18;;;;;;;8.00;6.28;;;;;;;-142.02;100.00;61695.09;5002539;28;20053;-71
2022/01/19 09:06:45;;;;;;;12.18;7.35;;;;;;;-142.02;100.00;61695.09;5004527;28;20085;-71
2022/01/19 09:09:11;;;;;;;6.85;6.10;;;;;;;-142.02;100.00;61695.09;4990074;28;20045;-70
2022/01/19 09:11:37;;;;;;;9.20;7.15;;;;;;;-142.02;100.00;61695.09;5004763;28;20193;-70
2022/01/19 09:14:06;;;;;;;13.32;7.65;;;;;;;-142.02;100.00;61695.09;5004657;28;20082;-69
2022/01/19 09:16:33;;;;;;;13.30;6.57;;;;;;;-142.02;100.00;61695.09;5003984;28;20049;-70
2022/01/19 09:19:00;;;;;;;13.00;6.60;;;;;;;-142.02;100.00;61695.09;5006684;28;20053;-69
2022/01/19 09:21:26;;;;;;;10.73;6.70;;;;;;;-142.02;100.00;61695.09;5004274;28;20052;-69
2022/01/19 09:23:54;;;;;;;5.93;5.05;;;;;;;-142.02;100.00;61695.09;4975821;28;20054;-72
2022/01/19 09:26:20;;;;;;;8.38;6.30;;;;;;;-142.02;100.00;61695.09;4992976;28;20054;-73
2022/01/19 09:28:46;;;;;;;5.60;5.10;;;;;;;-142.02;100.00;61695.09;4978668;28;20084;-71
2022/01/19 09:31:16;;;;;;;8.05;6.70;;;;;;;-142.02;100.00;61695.09;4995723;28;20582;-70
2022/01/19 09:33:44;;;;;;;11.45;6.60;;;;;;;-142.02;100.00;61695.09;4997556;28;20435;-70
2022/01/19 09:36:31;;;;;;;8.65;6.03;;;;;;;-142.02;100.00;61695.09;4979758;28;20050;-70
2022/01/19 09:38:57;;;;;;;13.30;7.90;;;;;;;-142.02;100.00;61695.09;4995512;28;20049;-69
2022/01/19 09:41:24;;;;;;;12.63;7.90;;;;;;;-142.02;100.00;61695.09;4995489;28;20069;-71
2022/01/19 09:43:50;;;;;;;2.92;2.70;;;;;;;-142.02;100.00;61695.09;4983147;28;20057;-69
2022/01/19 09:46:19;;;;;;;10.85;5.38;;;;;;;-142.02;100.00;61695.09;4977476;28;20775;-69
2022/01/19 09:48:45;;;;;;;8.90;6.63;;;;;;;-142.02;100.00;61695.09;4995173;28;20038;-69
2022/01/19 09:51:12;;;;;;;8.25;6.32;;;;;;;-142.02;100.00;61695.09;4994743;28;20061;-70
2022/01/19 09:53:38;;;;;;;6.38;5.78;;;;;;;-142.02;100.00;61695.09;4947156;28;20549;-69
2022/01/19 09:56:07;;;;;;;8.52;7.63;;;;;;;-142.02;100.00;61695.09;4977202;28;20042;-69
2022/01/19 09:58:33;;;;;;;9.02;7.30;;;;;;;-142.02;100.00;61695.09;4978875;28;20042;-68
2022/01/19 10:00:59;;;;;;;8.82;6.75;;;;;;;-142.02;100.00;61695.09;4999315;28;20536;-71
2022/01/19 10:03:29;;;;;;;5.55;5.05;;;;;;;-142.02;100.00;61695.09;4989333;28;20137;-71
2022/01/19 10:06:02;;;;;;;7.27;6.03;;;;;;;-142.02;100.00;61695.09;4984733;28;20510;-70
2022/01/19 10:08:33;;;;;;;8.00;7.20;;;;;;;-142.02;100.00;61695.09;4984384;28;20435;-70
2022/01/19 10:11:12;;;;;;;5.40;4.75;;;;;;;-142.02;100.00;61695.09;4982956;28;20038;-71
2022/01/19 10:16:59;;;;;;;4.50;3.67;;;;;;;-142.02;100.00;61695.09;4952452;28;20160;-70
2022/01/19 10:19:27;;;;;;;5.50;4.95;;;;;;;-142.02;100.00;61695.09;4986097;28;20061;-70
2022/01/19 10:22:09;;;;;;;10.63;6.60;;;;;;;-142.02;100.00;61695.09;5001344;28;20053;-71
2022/01/19 10:24:39;;;;;;;9.93;6.28;;;;;;;-142.02;100.00;61695.09;5002602;28;20050;-71
2022/01/19 10:27:40;;;;;;;11.73;5.95;;;;;;;-142.02;100.00;61695.09;4980897;28;20056;-70
2022/01/19 10:30:07;;;;;;;5.65;5.15;;;;;;;-142.02;100.00;61695.09;4997971;28;20050;-70
2022/01/19 10:32:35;;;;;;;7.88;6.25;;;;;;;-142.02;100.00;61695.09;4999285;28;20061;-69
2022/01/19 10:35:36;;;;;;;8.30;6.70;;;;;;;-142.02;100.00;61695.09;4997559;28;20100;-70
2022/01/19 10:38:06;;;;;;;10.00;7.50;;;;;;;-142.02;100.00;61695.09;5000229;28;20133;-69
2022/01/19 10:40:33;;;;;;;10.48;7.00;;;;;;;-142.02;100.00;61695.09;4997199;28;20406;-70
2022/01/19 10:42:59;;;;;;;7.18;6.25;;;;;;;-142.02;100.00;61695.09;4983302;28;20054;-70
2022/01/19 10:45:26;;;;;;;3.65;3.40;;;;;;;-142.02;100.00;61695.09;4979935;28;20049;-70
2022/01/19 10:47:55;;;;;;;3.90;3.53;;;;;;;-142.02;100.00;61695.09;4982289;28;20046;-69
2022/01/19 10:50:29;;;;;;;6.00;4.65;;;;;;;-142.02;100.00;61695.09;4996323;28;20046;-70
2022/01/19 10:52:57;;;;;;;6.40;5.38;;;;;;;-142.02;100.00;61695.09;4983205;28;20161;-69
2022/01/19 10:55:23;;;;;;;8.10;5.93;;;;;;;-142.02;100.00;61695.09;5000598;28;20050;-70
2022/01/19 10:57:50;;;;;;;6.70;6.10;;;;;;;-142.02;100.00;61695.09;4972056;28;20057;-70
2022/01/19 11:00:24;;;;;;;5.18;4.78;;;;;;;-142.02;100.00;61695.09;4984021;28;20037;-70
2022/01/19 11:03:16;;;;;;;7.00;5.30;;;;;;;-142.02;100.00;61695.09;4999669;28;20048;-70
2022/01/19 11:05:59;;;;;;;6.05;5.45;;;;;;;-142.02;100.00;61695.09;4981445;28;20129;-70
2022/01/19 11:08:26;;;;;;;6.32;5.05;;;;;;;-142.02;100.00;61695.09;4999884;28;20045;-71
2022/01/19 11:10:54;;;;;;;8.68;6.70;;;;;;;-142.02;100.00;61695.09;4980963;28;20044;-71
2022/01/19 11:13:39;;;;;;;7.45;5.05;;;;;;;-142.02;100.00;61695.09;4998597;28;20437;-71
2022/01/19 11:16:11;;;;;;;4.22;3.78;;;;;;;-142.02;100.00;61695.09;4985544;28;20049;-70
2022/01/19 11:18:42;;;;;;;6.32;5.30;;;;;;;-142.02;100.00;61695.09;5001395;28;20049;-70
2022/01/19 11:21:09;;;;;;;4.97;4.50;;;;;;;-142.02;100.00;61695.09;4991761;28;20050;-71
2022/01/19 11:23:45;;;;;;;8.25;5.20;;;;;;;-142.02;100.00;61695.09;4985488;28;20057;-70
2022/01/19 11:26:23;;;;;;;6.57;5.13;;;;;;;-142.02;100.00;61695.09;4985187;28;20042;-70
2022/01/19 11:28:49;;;;;;;5.43;4.90;;;;;;;-142.02;100.00;61695.09;4999627;28;20137;-70
2022/01/19 11:31:20;;;;;;;5.65;4.88;;;;;;;-142.02;100.00;61695.09;4974208;28;20057;-69
2022/01/19 11:33:52;;;;;;;9.10;7.10;;;;;;;-142.02;100.00;61695.09;5000634;28;20057;-70
2022/01/19 11:36:20;;;;;;;6.10;5.47;;;;;;;-142.02;100.00;61695.09;4998679;28;20046;-70
2022/01/19 11:38:48;;;;;;;9.05;5.90;;;;;;;-142.02;100.00;61695.09;4980062;28;20050;-70
2022/01/19 11:41:20;;;;;;;6.25;5.65;;;;;;;-142.02;100.00;61695.09;5000157;28;20046;-70
2022/01/19 11:43:50;;;;;;;6.97;6.30;;;;;;;-142.02;100.00;61695.09;4998673;28;20144;-75
2022/01/19 11:46:48;;;;;;;7.72;6.22;;;;;;;-142.02;100.00;61695.09;4996751;28;20082;-69
2022/01/19 11:49:46;;;;;;;4.43;3.85;;;;;;;-142.02;100.00;61695.09;5002724;28;20069;-70
2022/01/19 11:52:16;;;;;;;5.75;4.25;;;;;;;-142.02;100.00;61695.09;4981937;28;20101;-70
2022/01/19 11:54:44;;;;;;;4.15;3.75;;;;;;;-142.02;100.00;61695.09;4967593;28;20140;-70
2022/01/19 11:57:18;;;;;;;7.75;4.72;;;;;;;-142.02;100.00;61695.09;4997896;28;20050;-69
2022/01/19 11:59:44;;;;;;;6.90;5.43;;;;;;;-142.02;100.00;61695.09;4986615;28;20050;-70
2022/01/19 12:02:26;;;;;;;8.30;6.40;;;;;;;-142.02;100.00;61695.09;4998369;28;20096;-69
2022/01/19 12:04:58;;;;;;;11.73;5.05;;;;;;;-142.02;100.00;61695.09;4996373;28;20050;-69
2022/01/19 12:07:39;;;;;;;6.57;4.80;;;;;;;-142.02;100.00;61695.09;4999478;28;20054;-70
2022/01/19 12:10:07;;;;;;;5.85;5.20;;;;;;;-142.02;100.00;61695.09;4998452;28;20053;-69
2022/01/19 12:12:44;;;;;;;5.07;4.57;;;;;;;-142.02;100.00;61695.09;4982179;28;20050;-69
2022/01/19 12:15:58;;;;;;;5.45;4.10;;;;;;;-142.02;100.00;61695.09;4987041;28;20430;-72
2022/01/19 12:18:48;;;;;;;5.22;4.30;;;;;;;-142.02;100.00;61695.09;4982437;28;20111;-71
2022/01/19 12:21:20;;;;;;;5.68;4.68;;;;;;;-142.02;100.00;61695.09;4999871;28;20049;-70
2022/01/19 12:23:50;;;;;;;5.63;4.80;;;;;;;-142.02;100.00;61695.09;4997326;28;20111;-70
2022/01/19 12:26:19;;;;;;;6.70;4.55;;;;;;;-142.02;100.00;61695.09;4979883;28;20046;-70
2022/01/19 12:28:53;;;;;;;5.75;4.88;;;;;;;-142.02;100.00;61695.09;4976880;28;20046;-70
2022/01/19 12:31:22;;;;;;;6.25;3.92;;;;;;;-142.02;100.00;61695.09;4999743;28;20056;-70
2022/01/19 12:34:04;;;;;;;11.57;4.53;;;;;;;-142.02;100.00;61695.09;4991413;28;22785;-70
2022/01/19 12:36:42;;;;;;;;;;;;;;;-142.02;100.00;61695.09;4996580;28;20062;-69
2022/01/19 12:39:28;;;;;;;5.10;4.05;;;;;;;-142.02;100.00;61695.09;5004355;28;19967;-70
2022/01/19 12:42:04;;;;;;;4.75;4.30;;;;;;;-142.02;100.00;61695.09;4987982;28;20433;-70
2022/01/19 12:44:40;;;;;;;4.80;3.83;;;;;;;-142.02;100.00;61695.09;4987446;28;20057;-71
2022/01/19 12:47:27;;;;;;;7.78;5.90;;;;;;;-142.02;100.00;61695.09;5005655;28;20045;-71
2022/01/19 12:50:17;;;;;;;3.92;3.63;;;;;;;-142.02;100.00;61695.09;5000938;28;20066;-70
2022/01/19 12:53:05;;;;;;;4.57;4.22;;;;;;;-142.02;100.00;61695.09;4959992;28;20048;-70
2022/01/19 12:55:38;;;;;;;7.13;4.93;;;;;;;-142.02;100.00;61695.09;4993511;28;20081;-71
2022/01/19 12:58:11;;;;;;;3.00;2.80;;;;;;;-142.02;100.00;61695.09;5004710;28;20193;-71